createdAt,value
2023-02-28T00:00:55.088Z,101200.80
2023-02-28T00:03:36.613Z,101212.80
2023-02-28T00:06:17.791Z,101200.40
2023-02-28T00:08:54.568Z,101205.20
2023-02-28T00:11:32.732Z,101207.20
2023-02-28T00:14:10.415Z,101208.00
2023-02-28T00:16:47.046Z,101208.80
2023-02-28T00:19:23.741Z,101212.00
2023-02-28T00:22:00.167Z,101221.80
2023-02-28T00:24:37.018Z,101235.20
2023-02-28T00:27:14.768Z,101225.20
2023-02-28T00:29:52.436Z,101229.00
2023-02-28T00:32:29.059Z,101227.40
2023-02-28T00:35:06.182Z,101230.40
2023-02-28T00:37:43.781Z,101231.00
2023-02-28T00:40:22.830Z,101234.60
2023-02-28T00:42:59.304Z,101233.20
2023-02-28T00:45:35.705Z,101236.00
2023-02-28T00:48:12.949Z,101235.80
2023-02-28T00:50:51.613Z,101233.00
2023-02-28T00:53:28.127Z,101238.00
2023-02-28T00:56:07.246Z,101228.60
2023-02-28T00:58:43.384Z,101235.80
2023-02-28T01:01:19.475Z,101234.20
2023-02-28T01:03:56.715Z,101247.00
2023-02-28T01:06:33.578Z,101243.60
2023-02-28T01:09:10.227Z,101241.80
2023-02-28T01:11:46.892Z,101244.80
2023-02-28T01:14:24.789Z,101249.20
2023-02-28T01:17:01.998Z,101249.60
2023-02-28T01:19:37.471Z,101255.60
2023-02-28T01:22:14.936Z,101258.00
2023-02-28T01:24:52.431Z,101257.20
2023-02-28T01:27:29.519Z,101252.60
2023-02-28T01:30:05.786Z,101254.20
2023-02-28T01:32:42.350Z,101254.60
2023-02-28T01:35:19.904Z,101252.60
2023-02-28T01:37:57.259Z,101252.00
2023-02-28T01:40:35.851Z,101249.80
2023-02-28T01:43:26.275Z,101248.40
2023-02-28T01:46:05.639Z,101255.00
2023-02-28T01:48:49.583Z,101259.00
2023-02-28T01:51:30.579Z,101260.40
2023-02-28T01:54:15.139Z,101256.20
2023-02-28T01:56:57.145Z,101257.60
2023-02-28T01:59:38.925Z,101256.20
2023-02-28T02:02:16.337Z,101263.80
2023-02-28T02:05:00.976Z,101257.20
2023-02-28T02:07:40.458Z,101260.40
2023-02-28T02:10:22.869Z,101256.60
2023-02-28T02:13:32.825Z,101254.60
2023-02-28T02:16:26.735Z,101248.40
2023-02-28T02:19:18.580Z,101240.40
2023-02-28T02:22:25.319Z,101245.80
2023-02-28T02:25:22.158Z,101238.60
2023-02-28T02:28:35.182Z,101236.40
2023-02-28T02:32:06.649Z,101236.60
2023-02-28T02:35:12.206Z,101231.40
2023-02-28T02:37:56.157Z,101218.60
2023-02-28T02:40:42.439Z,101223.20
2023-02-28T02:43:30.289Z,101226.60
2023-02-28T02:46:14.105Z,101220.00
2023-02-28T02:48:51.611Z,101220.80
2023-02-28T02:51:33.849Z,101228.80
2023-02-28T02:54:18.549Z,101224.20
2023-02-28T02:56:56.951Z,101228.20
2023-02-28T02:59:36.220Z,101237.00
2023-02-28T03:02:18.655Z,101234.20
2023-02-28T03:05:03.543Z,101230.40
2023-02-28T03:07:39.877Z,101232.80
2023-02-28T03:10:37.475Z,101227.40
2023-02-28T03:14:03.587Z,101230.60
2023-02-28T03:16:58.371Z,101234.00
2023-02-28T03:20:08.591Z,101223.00
2023-02-28T03:23:08.104Z,101227.80
2023-02-28T03:25:56.092Z,101229.00
2023-02-28T03:28:46.972Z,101228.20
2023-02-28T03:31:30.862Z,101223.00
2023-02-28T03:34:18.053Z,101226.80
2023-02-28T03:37:03.436Z,101226.20
2023-02-28T03:39:47.747Z,101224.00
2023-02-28T03:42:31.052Z,101227.40
2023-02-28T03:45:14.436Z,101224.80
2023-02-28T03:48:00.232Z,101224.40
2023-02-28T03:50:43.396Z,101226.20
2023-02-28T03:53:25.506Z,101232.20
2023-02-28T03:56:09.600Z,101229.20
2023-02-28T03:58:56.062Z,101230.40
2023-02-28T04:01:38.928Z,101235.00
2023-02-28T04:04:17.579Z,101232.20
2023-02-28T04:06:55.519Z,101232.60
2023-02-28T04:09:32.338Z,101235.00
2023-02-28T04:12:10.120Z,101234.80
2023-02-28T04:14:46.794Z,101239.80
2023-02-28T04:17:24.553Z,101247.20
2023-02-28T04:20:01.632Z,101249.40
2023-02-28T04:22:38.113Z,101252.00
2023-02-28T04:25:18.722Z,101258.60
2023-02-28T04:27:55.275Z,101259.20
2023-02-28T04:30:34.617Z,101265.00
2023-02-28T04:33:11.334Z,101265.40
2023-02-28T04:35:48.002Z,101265.80
2023-02-28T04:38:24.444Z,101269.40
2023-02-28T04:41:03.346Z,101265.80
2023-02-28T04:43:40.684Z,101269.60
2023-02-28T04:46:17.058Z,101269.60
2023-02-28T04:48:55.223Z,101269.20
2023-02-28T04:51:31.347Z,101266.20
2023-02-28T04:54:08.397Z,101272.00
2023-02-28T04:56:45.283Z,101274.00
2023-02-28T04:59:21.885Z,101270.40
2023-02-28T05:01:58.336Z,101269.80
2023-02-28T05:04:35.395Z,101272.60
2023-02-28T05:07:12.473Z,101276.60
2023-02-28T05:09:52.862Z,101277.20
2023-02-28T05:12:29.692Z,101280.00
2023-02-28T05:15:06.396Z,101275.80
2023-02-28T05:17:42.722Z,101274.20
2023-02-28T05:20:23.159Z,101271.80
2023-02-28T05:23:00.552Z,101271.60
2023-02-28T05:26:03.855Z,101273.20
2023-02-28T05:28:40.370Z,101275.40
2023-02-28T05:31:18.217Z,101274.20
2023-02-28T05:33:54.107Z,101277.80
2023-02-28T05:36:30.836Z,101268.80
2023-02-28T05:39:08.475Z,101274.00
2023-02-28T05:41:45.405Z,101274.20
2023-02-28T05:44:21.590Z,101271.60
2023-02-28T05:46:58.498Z,101282.40
2023-02-28T05:49:35.735Z,101279.80
2023-02-28T05:52:13.321Z,101281.60
2023-02-28T05:54:50.679Z,101279.00
2023-02-28T05:57:26.682Z,101283.20
2023-02-28T06:00:03.128Z,101278.20
2023-02-28T06:02:49.819Z,101282.80
2023-02-28T06:05:28.042Z,101285.20
2023-02-28T06:08:05.286Z,101278.60
2023-02-28T06:10:42.849Z,101285.40
2023-02-28T06:13:19.030Z,101288.80
2023-02-28T06:15:56.434Z,101298.40
2023-02-28T06:18:34.485Z,101293.80
2023-02-28T06:21:12.832Z,101303.80
2023-02-28T06:23:49.031Z,101303.00
2023-02-28T06:26:25.753Z,101302.80
2023-02-28T06:29:03.412Z,101307.40
2023-02-28T06:31:40.278Z,101295.60
2023-02-28T06:34:17.433Z,101303.60
2023-02-28T06:36:55.859Z,101309.00
2023-02-28T06:39:32.548Z,101300.60
2023-02-28T06:42:09.227Z,101303.60
2023-02-28T06:44:47.945Z,101305.60
2023-02-28T06:47:25.460Z,101306.60
2023-02-28T06:50:03.092Z,101314.60
2023-02-28T06:52:40.289Z,101310.60
2023-02-28T06:55:20.100Z,101318.80
2023-02-28T06:57:57.367Z,101323.20
2023-02-28T07:00:35.917Z,101323.40
2023-02-28T07:03:13.706Z,101318.40
2023-02-28T07:05:50.740Z,101317.60
2023-02-28T07:08:27.578Z,101321.00
2023-02-28T07:11:05.150Z,101315.60
2023-02-28T07:13:42.744Z,101326.20
2023-02-28T07:16:20.744Z,101323.60
2023-02-28T07:18:59.154Z,101320.20
2023-02-28T07:21:35.810Z,101316.60
2023-02-28T07:24:16.994Z,101315.40
2023-02-28T07:26:54.033Z,101316.00
2023-02-28T07:29:31.292Z,101317.60
2023-02-28T07:32:08.892Z,101318.60
2023-02-28T07:34:45.466Z,101319.00
2023-02-28T07:37:21.918Z,101321.80
2023-02-28T07:40:00.304Z,101320.40
2023-02-28T07:42:37.772Z,101319.20
2023-02-28T07:45:17.966Z,101317.40
2023-02-28T07:47:54.898Z,101315.60
2023-02-28T07:50:32.332Z,101314.80
2023-02-28T07:53:08.559Z,101314.80
2023-02-28T07:55:45.845Z,101314.00
2023-02-28T07:58:23.415Z,101311.40
2023-02-28T08:01:00.556Z,101319.60
2023-02-28T08:03:36.744Z,101315.00
2023-02-28T08:06:22.407Z,101318.00
2023-02-28T08:08:59.421Z,101318.80
2023-02-28T08:11:36.547Z,101320.60
2023-02-28T08:14:13.257Z,101321.80
2023-02-28T08:16:49.537Z,101322.80
2023-02-28T08:19:25.520Z,101321.40
2023-02-28T08:22:03.739Z,101321.00
2023-02-28T08:24:40.825Z,101324.20
2023-02-28T08:27:16.961Z,101319.20
2023-02-28T08:29:54.107Z,101323.00
2023-02-28T08:32:30.821Z,101333.20
2023-02-28T08:35:07.521Z,101333.80
2023-02-28T08:37:44.383Z,101330.00
2023-02-28T08:40:25.711Z,101325.20
2023-02-28T08:43:03.484Z,101327.60
2023-02-28T08:45:40.314Z,101323.80
2023-02-28T08:48:19.557Z,101320.60
2023-02-28T08:51:08.669Z,101323.60
2023-02-28T08:53:44.537Z,101323.20
2023-02-28T08:56:21.472Z,101322.60
2023-02-28T08:58:59.950Z,101321.20
2023-02-28T09:01:37.871Z,101320.40
2023-02-28T09:04:18.388Z,101321.40
2023-02-28T09:06:57.009Z,101323.60
2023-02-28T09:09:34.360Z,101324.80
2023-02-28T09:12:12.734Z,101329.00
2023-02-28T09:14:50.136Z,101329.60
2023-02-28T09:17:30.719Z,101329.80
2023-02-28T09:20:09.300Z,101333.20
2023-02-28T09:22:46.907Z,101339.00
2023-02-28T09:25:24.779Z,101333.20
2023-02-28T09:28:01.875Z,101336.80
2023-02-28T09:30:38.866Z,101332.40
2023-02-28T09:33:14.693Z,101331.40
2023-02-28T09:35:51.489Z,101330.60
2023-02-28T09:38:27.933Z,101326.20
2023-02-28T09:41:07.019Z,101325.00
2023-02-28T09:43:49.590Z,101326.80
2023-02-28T09:46:42.060Z,101326.00
2023-02-28T09:49:24.300Z,101329.00
2023-02-28T09:52:10.561Z,101326.80
2023-02-28T09:54:46.972Z,101323.20
2023-02-28T09:57:36.375Z,101316.80
2023-02-28T10:00:26.692Z,101320.40
2023-02-28T10:03:29.931Z,101325.00
2023-02-28T10:06:15.937Z,101320.60
2023-02-28T10:09:08.095Z,101322.20
2023-02-28T10:14:29.790Z,101324.00
2023-02-28T10:17:13.214Z,101325.80
2023-02-28T10:19:59.758Z,101323.00
2023-02-28T10:22:48.101Z,101321.20
2023-02-28T10:25:29.510Z,101314.00
2023-02-28T10:28:15.639Z,101312.20
2023-02-28T10:30:55.882Z,101316.80
2023-02-28T10:33:37.496Z,101308.80
2023-02-28T10:36:20.916Z,101306.00
2023-02-28T10:38:58.237Z,101309.40
2023-02-28T10:41:45.174Z,101312.40
2023-02-28T10:44:31.388Z,101310.20
2023-02-28T10:47:08.815Z,101309.80
2023-02-28T10:49:53.962Z,101308.00
2023-02-28T10:52:46.628Z,101301.60
2023-02-28T10:55:29.315Z,101304.00
2023-02-28T10:58:05.809Z,101302.20
2023-02-28T11:00:44.760Z,101299.00
2023-02-28T11:03:35.591Z,101284.80
2023-02-28T11:06:22.353Z,101287.20
2023-02-28T11:09:03.899Z,101280.20
2023-02-28T11:11:52.122Z,101274.80
2023-02-28T11:14:32.968Z,101272.40
2023-02-28T11:17:28.028Z,101272.40
2023-02-28T11:20:08.909Z,101267.20
2023-02-28T11:22:50.798Z,101260.40
2023-02-28T11:25:34.151Z,101262.40
2023-02-28T11:28:27.786Z,101258.20
2023-02-28T11:31:31.260Z,101253.80
2023-02-28T11:34:25.287Z,101253.40
2023-02-28T11:37:06.211Z,101256.40
2023-02-28T11:39:43.786Z,101238.80
2023-02-28T11:42:48.233Z,101241.80
2023-02-28T11:45:57.686Z,101221.80
2023-02-28T11:48:44.778Z,101217.40
2023-02-28T11:51:31.288Z,101217.20
2023-02-28T11:54:40.638Z,101222.20
2023-02-28T11:57:35.859Z,101221.60
2023-02-28T12:00:35.801Z,101209.40
2023-02-28T12:03:30.001Z,101208.00
2023-02-28T12:06:23.623Z,101198.00
2023-02-28T12:09:21.361Z,101200.80
2023-02-28T12:12:11.914Z,101189.20
2023-02-28T12:15:28.411Z,101189.60
2023-02-28T12:18:51.123Z,101190.40
2023-02-28T12:21:40.666Z,101190.00
2023-02-28T12:24:38.837Z,101193.80
2023-02-28T12:27:21.538Z,101181.40
2023-02-28T12:30:04.985Z,101171.20
2023-02-28T12:32:47.512Z,101166.80
2023-02-28T12:35:29.939Z,101153.60
2023-02-28T12:38:18.996Z,101157.40
2023-02-28T12:41:02.639Z,101154.00
2023-02-28T12:43:47.117Z,101163.20
2023-02-28T12:46:32.354Z,101156.00
2023-02-28T12:49:16.830Z,101152.20
2023-02-28T12:51:55.890Z,101153.80
2023-02-28T12:54:39.652Z,101147.80
2023-02-28T12:57:29.782Z,101141.80
2023-02-28T13:00:14.495Z,101134.80
2023-02-28T13:03:47.418Z,101135.40
2023-02-28T13:06:51.417Z,101122.60
2023-02-28T13:09:28.780Z,101127.20
2023-02-28T13:12:15.218Z,101132.60
2023-02-28T13:14:52.171Z,101128.00
2023-02-28T13:17:30.479Z,101127.80
2023-02-28T13:20:18.211Z,101116.60
2023-02-28T13:22:56.922Z,101119.00
2023-02-28T13:26:00.555Z,101111.60
2023-02-28T13:29:32.617Z,101105.20
2023-02-28T13:32:47.939Z,101110.00
2023-02-28T13:35:48.660Z,101111.80
2023-02-28T13:38:49.604Z,101108.60
2023-02-28T13:41:55.133Z,101104.00
2023-02-28T13:44:32.891Z,101109.00
2023-02-28T13:47:34.625Z,101107.20
2023-02-28T13:50:30.979Z,101099.60
2023-02-28T13:53:56.624Z,101094.00
2023-02-28T13:56:47.475Z,101083.40
2023-02-28T13:59:37.411Z,101081.80
2023-02-28T14:02:55.851Z,101081.20
2023-02-28T14:05:35.924Z,101089.00
2023-02-28T14:08:19.670Z,101091.40
2023-02-28T14:11:09.341Z,101080.80
2023-02-28T14:13:53.529Z,101088.20
2023-02-28T14:16:39.220Z,101077.80
2023-02-28T14:19:24.962Z,101075.60
2023-02-28T14:22:22.157Z,101074.00
2023-02-28T14:25:20.267Z,101075.00
2023-02-28T14:28:08.602Z,101075.20
2023-02-28T14:31:11.254Z,101076.60
2023-02-28T14:34:30.535Z,101067.60
2023-02-28T14:37:09.438Z,101063.20
2023-02-28T14:39:50.755Z,101066.00
2023-02-28T14:42:45.072Z,101059.00
2023-02-28T14:45:30.367Z,101055.00
2023-02-28T14:48:13.312Z,101044.80
2023-02-28T14:50:59.179Z,101047.20
2023-02-28T14:53:44.615Z,101053.00
2023-02-28T14:56:31.166Z,101043.20
2023-02-28T14:59:08.716Z,101042.80
2023-02-28T15:01:45.219Z,101037.80
2023-02-28T15:04:32.423Z,101049.20
2023-02-28T15:07:19.803Z,101048.20
2023-02-28T15:10:24.979Z,101047.80
2023-02-28T15:13:05.732Z,101050.80
2023-02-28T15:16:02.684Z,101045.20
2023-02-28T15:18:52.291Z,101038.60
2023-02-28T15:21:31.379Z,101036.40
2023-02-28T15:24:15.797Z,101038.20
2023-02-28T15:26:59.446Z,101040.60
2023-02-28T15:29:47.149Z,101046.60
2023-02-28T15:32:38.477Z,101043.20
2023-02-28T15:35:34.495Z,101041.20
2023-02-28T15:38:27.008Z,101037.20
2023-02-28T15:41:09.118Z,101040.60
2023-02-28T15:43:45.713Z,101047.40
2023-02-28T15:46:23.516Z,101042.80
2023-02-28T15:49:02.905Z,101048.40
2023-02-28T15:51:42.910Z,101046.60
2023-02-28T15:54:28.527Z,101053.40
2023-02-28T15:57:16.843Z,101050.80
2023-02-28T16:00:00.956Z,101054.40
2023-02-28T16:02:42.325Z,101050.80
2023-02-28T16:05:36.631Z,101052.00
2023-02-28T16:08:21.941Z,101054.20
2023-02-28T16:11:00.962Z,101047.80
2023-02-28T16:13:38.298Z,101051.80
2023-02-28T16:16:21.310Z,101050.00
2023-02-28T16:18:58.396Z,101049.40
2023-02-28T16:21:35.640Z,101053.40
2023-02-28T16:24:14.052Z,101052.60
2023-02-28T16:26:52.951Z,101055.40
2023-02-28T16:29:35.497Z,101052.80
2023-02-28T16:32:13.852Z,101053.60
2023-02-28T16:34:51.560Z,101048.40
2023-02-28T16:37:28.772Z,101050.80
2023-02-28T16:40:06.267Z,101054.20
2023-02-28T16:42:44.487Z,101053.40
2023-02-28T16:45:27.113Z,101055.60
2023-02-28T16:48:03.621Z,101056.80
2023-02-28T16:50:40.462Z,101055.60
2023-02-28T16:53:16.672Z,101055.60
2023-02-28T16:55:54.589Z,101056.40
2023-02-28T16:58:30.905Z,101064.20
2023-02-28T17:01:08.421Z,101065.20
2023-02-28T17:03:44.839Z,101064.60
2023-02-28T17:06:29.112Z,101064.20
2023-02-28T17:09:06.369Z,101064.20
2023-02-28T17:11:43.598Z,101059.40
2023-02-28T17:14:20.124Z,101067.60
2023-02-28T17:16:57.272Z,101067.40
2023-02-28T17:19:33.873Z,101070.80
2023-02-28T17:22:14.254Z,101076.20
2023-02-28T17:24:50.304Z,101075.80
2023-02-28T17:27:28.557Z,101080.60
2023-02-28T17:30:06.074Z,101084.00
2023-02-28T17:32:42.408Z,101090.40
2023-02-28T17:35:19.777Z,101094.80
2023-02-28T17:37:57.003Z,101100.40
2023-02-28T17:40:35.055Z,101104.40
2023-02-28T17:43:11.901Z,101107.60
2023-02-28T17:45:48.357Z,101110.80
2023-02-28T17:48:25.670Z,101117.00
2023-02-28T17:51:03.362Z,101120.00
2023-02-28T17:53:39.461Z,101122.40
2023-02-28T17:56:21.699Z,101122.60
2023-02-28T17:59:00.470Z,101121.40
2023-02-28T18:01:36.224Z,101124.00
2023-02-28T18:04:14.060Z,101125.60
2023-02-28T18:06:52.566Z,101127.40
2023-02-28T18:09:30.692Z,101127.00
2023-02-28T18:12:08.352Z,101132.60
2023-02-28T18:14:46.474Z,101133.40
2023-02-28T18:17:22.757Z,101138.00
2023-02-28T18:19:59.973Z,101137.40
2023-02-28T18:22:37.928Z,101137.40
2023-02-28T18:25:18.222Z,101134.00
2023-02-28T18:28:01.091Z,101136.60
2023-02-28T18:30:41.017Z,101134.20
2023-02-28T18:33:17.481Z,101136.40
2023-02-28T18:36:01.263Z,101141.60
2023-02-28T18:38:38.464Z,101145.60
2023-02-28T18:41:16.114Z,101150.80
2023-02-28T18:43:54.628Z,101153.40
2023-02-28T18:46:32.958Z,101153.80
2023-02-28T18:49:10.726Z,101150.40
2023-02-28T18:51:47.844Z,101152.60
2023-02-28T18:54:24.800Z,101149.60
2023-02-28T18:57:01.918Z,101154.40
2023-02-28T18:59:39.341Z,101160.40
2023-02-28T19:02:16.222Z,101164.40
2023-02-28T19:04:54.653Z,101172.40
2023-02-28T19:07:32.128Z,101174.20
2023-02-28T19:10:10.681Z,101176.60
2023-02-28T19:12:48.396Z,101180.00
2023-02-28T19:15:25.157Z,101176.60
2023-02-28T19:18:01.639Z,101175.00
2023-02-28T19:20:38.630Z,101172.60
2023-02-28T19:23:15.606Z,101173.60
2023-02-28T19:25:52.398Z,101176.60
2023-02-28T19:28:30.663Z,101175.40
2023-02-28T19:31:06.948Z,101179.60
2023-02-28T19:33:42.385Z,101180.60
2023-02-28T19:36:20.114Z,101180.80
2023-02-28T19:38:56.975Z,101182.00
2023-02-28T19:41:34.188Z,101182.40
2023-02-28T19:44:11.470Z,101187.80
2023-02-28T19:46:48.538Z,101185.80
2023-02-28T19:49:26.079Z,101179.00
2023-02-28T19:52:04.271Z,101174.20
2023-02-28T19:54:40.395Z,101173.40
2023-02-28T19:57:16.894Z,101173.20
2023-02-28T19:59:53.594Z,101167.40
2023-02-28T20:02:31.220Z,101167.80
2023-02-28T20:05:08.507Z,101168.40
2023-02-28T20:07:45.146Z,101168.20
2023-02-28T20:10:23.298Z,101169.40
2023-02-28T20:13:00.026Z,101168.00
2023-02-28T20:15:36.776Z,101172.20
2023-02-28T20:18:13.321Z,101171.60
2023-02-28T20:20:50.233Z,101172.80
2023-02-28T20:23:26.733Z,101166.20
2023-02-28T20:26:06.649Z,101164.60
2023-02-28T20:28:44.551Z,101161.20
2023-02-28T20:31:23.354Z,101151.00
2023-02-28T20:34:01.275Z,101143.00
2023-02-28T20:36:37.979Z,101140.40
2023-02-28T20:39:14.202Z,101142.80
2023-02-28T20:41:51.153Z,101143.60
2023-02-28T20:44:29.261Z,101142.00
2023-02-28T20:47:06.605Z,101142.40
2023-02-28T20:49:43.186Z,101138.60
2023-02-28T20:52:19.690Z,101142.20
2023-02-28T20:54:55.989Z,101147.20
2023-02-28T20:57:35.977Z,101143.20
2023-02-28T21:00:20.947Z,101146.20
2023-02-28T21:02:59.039Z,101147.40
2023-02-28T21:05:36.239Z,101148.80
2023-02-28T21:08:12.784Z,101145.80
2023-02-28T21:10:48.963Z,101146.00
2023-02-28T21:13:27.031Z,101150.20
2023-02-28T21:16:09.863Z,101149.40
2023-02-28T21:18:46.914Z,101137.40
2023-02-28T21:21:27.699Z,101138.00
2023-02-28T21:24:04.688Z,101143.00
2023-02-28T21:26:41.634Z,101149.80
2023-02-28T21:29:19.052Z,101151.60
2023-02-28T21:31:58.544Z,101145.80
2023-02-28T21:34:35.509Z,101148.80
2023-02-28T21:37:12.665Z,101161.00
2023-02-28T21:39:50.976Z,101157.40
2023-02-28T21:42:27.575Z,101158.40
2023-02-28T21:45:03.297Z,101157.00
2023-02-28T21:47:40.593Z,101163.20
2023-02-28T21:50:22.195Z,101160.60
2023-02-28T21:52:59.383Z,101158.40
2023-02-28T21:55:39.392Z,101156.80
2023-02-28T21:58:16.519Z,101159.40
2023-02-28T22:00:53.173Z,101159.60
2023-02-28T22:03:30.337Z,101162.60
2023-02-28T22:06:16.058Z,101166.40
2023-02-28T22:08:55.460Z,101166.00
2023-02-28T22:11:33.605Z,101169.00
2023-02-28T22:14:12.644Z,101169.00
2023-02-28T22:16:52.506Z,101162.00
2023-02-28T22:19:31.170Z,101161.40
2023-02-28T22:22:08.136Z,101161.80
2023-02-28T22:24:47.237Z,101144.00
2023-02-28T22:27:24.612Z,101139.00
2023-02-28T22:30:02.805Z,101137.00
2023-02-28T22:32:41.003Z,101146.80
2023-02-28T22:35:21.907Z,101146.00
2023-02-28T22:37:59.077Z,101144.80
2023-02-28T22:40:36.300Z,101137.60
2023-02-28T22:43:12.597Z,101134.60
2023-02-28T22:45:48.814Z,101128.20
2023-02-28T22:48:25.640Z,101121.80
2023-02-28T22:51:13.455Z,101123.20
2023-02-28T22:53:52.624Z,101131.80
2023-02-28T22:56:32.574Z,101135.20
2023-02-28T22:59:09.039Z,101138.80
2023-02-28T23:01:47.770Z,101137.00
2023-02-28T23:04:26.095Z,101142.60
2023-02-28T23:07:03.028Z,101145.20
2023-02-28T23:09:39.753Z,101148.60
2023-02-28T23:12:17.222Z,101150.80
2023-02-28T23:14:56.327Z,101149.20
2023-02-28T23:17:36.284Z,101143.20
2023-02-28T23:20:17.122Z,101142.00
2023-02-28T23:22:53.642Z,101142.20
2023-02-28T23:25:30.166Z,101137.80
2023-02-28T23:28:07.794Z,101136.40
2023-02-28T23:30:44.627Z,101136.60
2023-02-28T23:33:21.447Z,101127.80
2023-02-28T23:35:58.290Z,101131.60
2023-02-28T23:38:34.932Z,101126.20
2023-02-28T23:41:14.894Z,101119.40
2023-02-28T23:43:52.985Z,101115.00
2023-02-28T23:46:30.101Z,101114.80
2023-02-28T23:49:07.943Z,101112.20
2023-02-28T23:51:43.842Z,101106.20
2023-02-28T23:54:20.189Z,101116.40
2023-02-28T23:56:57.888Z,101111.00
2023-02-28T23:59:34.528Z,101106.00
